Flight Track Log - Related Links

Times and Time Zones

All times are in EST time to prevent confusion due to time zone crossing. See the SWA2383 flight status page for this flight to view local times or setup timezone preferences in your user account.


Time Position Orientation Groundspeed Altitude Reporting Facility
EST Latitude Longitude Course Direction KTS MPH feet Rate Location/Type
Fri 10:57:14 AM 26.6661 -81.7056 339° North 275 316 5,600  Level Miami Center
Fri 10:58:14 AM 26.7411 -81.7133 355° North 280 322 8,400 1,900 Climbing Miami Center
Fri 10:59:14 AM 26.8172 -81.7442 340° North 280 322 9,400 1,100 Climbing Miami Center
Fri 11:00:14 AM 26.9028 -81.7456 359° North 285 328 10,600 1,800 Climbing Miami Center
Fri 11:01:00 AM 27.0775 -82.0851 339° North  Level Estimated
Fri 11:01:14 AM 27.0125 -81.7733 347° North 331 381 13,000  Level Miami Center
Fri 11:02:14 AM 27.1056 -81.7961 348° North 361 415 15,200 1,950 Climbing Miami Center
Fri 11:03:14 AM 27.2092 -81.8214 348° North 374 430 16,900 1,500 Climbing Miami Center
Fri 11:04:14 AM 27.3250 -81.8522 347° North 385 443 18,200 1,900 Climbing Miami Center
Fri 11:05:14 AM 27.4367 -81.8781 348° North 393 452 20,700 1,900 Climbing Miami Center
Fri 11:06:14 AM 27.5525 -81.9067 348° North 410 472 22,000 1,500 Climbing Miami Center
Fri 11:07:14 AM 27.6664 -81.9350 348° North 415 478 23,700 1,385 Climbing Miami Center
Fri 11:09:42 AM 27.9611 -82.0092 347° North 442 509 26,800 1,413 Climbing Jacksonville Center
Fri 11:10:42 AM 28.0661 -82.0833 328° Northwest 436 502 28,600 1,650 Climbing Jacksonville Center
Fri 11:11:42 AM 28.1561 -82.1653 321° Northwest 430 495 30,100 1,300 Climbing Jacksonville Center
Fri 11:12:42 AM 28.2608 -82.2208 335° Northwest 417 480 31,200 1,150 Climbing Jacksonville Center
Fri 11:13:42 AM 28.3758 -82.2533 346° North 406 467 32,400 1,100 Climbing Jacksonville Center
Fri 11:14:42 AM 28.4886 -82.2856 346° North 411 473 33,400 800 Climbing Jacksonville Center
Fri 11:15:42 AM 28.5808 -82.3583 325° Northwest 405 466 34,000 300 Climbing Jacksonville Center
Fri 11:16:42 AM 28.6750 -82.4289 327° Northwest 405 466 34,000  Level Jacksonville Center
Fri 11:17:42 AM 28.7650 -82.5017 325° Northwest 400 460 34,000  Level Jacksonville Center
Fri 11:18:42 AM 28.8592 -82.5725 327° Northwest 407 468 34,000  Level Jacksonville Center
Fri 11:19:42 AM 28.9531 -82.6481 325° Northwest 407 468 34,000  Level Jacksonville Center
Fri 11:20:42 AM 29.0472 -82.7239 325° Northwest 407 468 34,000  Level Jacksonville Center
Fri 11:21:42 AM 29.1411 -82.7950 327° Northwest 407 468 34,000  Level Jacksonville Center
Fri 11:22:42 AM 29.2331 -82.8711 324° Northwest 407 468 34,000  Level Jacksonville Center
Fri 11:23:42 AM 29.3269 -82.9450 326° Northwest 407 468 34,000  Level Jacksonville Center
Fri 11:24:42 AM 29.4231 -83.0167 327° Northwest 407 468 34,000  Level Jacksonville Center
Fri 11:25:42 AM 29.5147 -83.0858 327° Northwest 416 479 34,000  Level Jacksonville Center
Fri 11:26:42 AM 29.6086 -83.1578 326° Northwest 421 484 34,000  Level Jacksonville Center
Fri 11:27:42 AM 29.7044 -83.2297 327° Northwest 416 479 34,000  Level Jacksonville Center
Fri 11:28:42 AM 29.8003 -83.3042 326° Northwest 416 479 34,000  Level Jacksonville Center
Fri 11:29:42 AM 29.8961 -83.3767 327° Northwest 416 479 34,000  Level Jacksonville Center
Fri 11:30:42 AM 29.9917 -83.4489 327° Northwest 421 484 34,000  Level Jacksonville Center
Fri 11:31:42 AM 30.0894 -83.5214 327° Northwest 421 484 34,000  Level Jacksonville Center
Fri 11:32:42 AM 30.1853 -83.5942 327° Northwest 421 484 34,000  Level Jacksonville Center
Fri 11:33:42 AM 30.2808 -83.6694 326° Northwest 421 484 34,000  Level Jacksonville Center
Fri 11:34:42 AM 30.3764 -83.7425 327° Northwest 421 484 34,000  Level Jacksonville Center
Fri 11:35:42 AM 30.4742 -83.8181 326° Northwest 421 484 34,000  Level Jacksonville Center
Fri 11:36:42 AM 30.5675 -83.8939 325° Northwest 421 484 34,000  Level Jacksonville Center
Fri 11:37:42 AM 30.6650 -83.9672 327° Northwest 416 479 34,000  Level Jacksonville Center
Fri 11:38:42 AM 30.7603 -84.0433 326° Northwest 416 479 34,000  Level Jacksonville Center
Fri 11:39:42 AM 30.8556 -84.1169 326° Northwest 422 486 34,000  Level Jacksonville Center
Fri 11:40:42 AM 30.9531 -84.1933 326° Northwest 417 480 34,000  Level Jacksonville Center
Fri 11:41:42 AM 31.0461 -84.2675 326° Northwest 417 480 34,000  Level Jacksonville Center
Fri 11:42:42 AM 31.1436 -84.3442 326° Northwest 417 480 34,000  Level Jacksonville Center
Fri 11:44:18 AM 31.2972 -84.4642 326° Northwest 420 483 34,000  Level Atlanta Center
Fri 11:45:18 AM 31.3908 -84.5400 325° Northwest 415 478 34,000  Level Atlanta Center
Fri 11:46:18 AM 31.4844 -84.6161 325° Northwest 415 478 34,000  Level Atlanta Center
Fri 11:47:18 AM 31.5781 -84.6872 327° Northwest 415 478 34,000  Level Atlanta Center
Fri 11:48:18 AM 31.6714 -84.7636 325° Northwest 415 478 34,000  Level Atlanta Center
Fri 11:49:18 AM 31.7669 -84.8400 326° Northwest 415 478 34,000  Level Atlanta Center
Fri 11:50:18 AM 31.8603 -84.9142 326° Northwest 415 478 34,000  Level Atlanta Center
Fri 11:51:18 AM 31.9558 -84.9886 327° Northwest 415 478 34,000  Level Atlanta Center
Fri 11:52:18 AM 32.0492 -85.0631 326° Northwest 415 478 34,000  Level Atlanta Center
Fri 11:53:18 AM 32.1403 -85.1403 324° Northwest 415 478 34,000  Level Atlanta Center
Fri 11:54:18 AM 32.2358 -85.2125 327° Northwest 410 472 34,000  Level Atlanta Center
Fri 11:55:18 AM 32.3247 -85.2900 324° Northwest 404 465 34,000  Level Atlanta Center
Fri 11:56:18 AM 32.4261 -85.3750 325° Northwest 404 465 34,000  Level Atlanta Center
Fri 11:57:18 AM 32.5172 -85.4478 326° Northwest 404 465 34,000  Level Atlanta Center
Fri 11:58:18 AM 32.6164 -85.5283 326° Northwest 422 486 34,000  Level Atlanta Center
Fri 11:59:18 AM 32.7072 -85.6039 325° Northwest 412 474 34,000  Level Atlanta Center
Fri 12:00:18 PM 32.7981 -85.6797 325° Northwest 407 468 34,000  Level Atlanta Center
Fri 12:01:18 PM 32.8786 -85.7456 326° Northwest 401 461 34,000  Level Atlanta Center
Fri 12:02:18 PM 32.9694 -85.8167 327° Northwest 401 461 34,000  Level Atlanta Center
Fri 12:03:18 PM 33.0622 -85.8953 325° Northwest 401 461 34,000  Level Atlanta Center
Fri 12:04:18 PM 33.1550 -85.9692 326° Northwest 401 461 34,000  Level Atlanta Center
Fri 12:05:18 PM 33.2478 -86.0483 324° Northwest 406 467 34,000  Level Atlanta Center
Fri 12:06:18 PM 33.3425 -86.1275 325° Northwest 396 456 34,000  Level Atlanta Center
Fri 12:07:18 PM 33.4350 -86.2019 326° Northwest 389 448 34,000  Level Atlanta Center
Fri 12:08:18 PM 33.5256 -86.2789 325° Northwest 394 453 34,000  Level Atlanta Center
Fri 12:09:18 PM 33.6161 -86.3536 326° Northwest 394 453 34,000  Level Atlanta Center
Fri 12:10:18 PM 33.7083 -86.4311 325° Northwest 394 453 34,000  Level Atlanta Center
Fri 12:11:18 PM 33.8028 -86.5086 326° Northwest 399 459 34,000  Level Atlanta Center
Fri 12:12:18 PM 33.8931 -86.5889 324° Northwest 404 465 34,000  Level Atlanta Center
Fri 12:13:18 PM 33.9853 -86.6667 325° Northwest 404 465 34,000  Level Atlanta Center
Fri 12:14:18 PM 34.0756 -86.7422 325° Northwest 404 465 34,000  Level Atlanta Center
Fri 12:15:18 PM 34.1678 -86.8231 324° Northwest 404 465 34,000  Level Atlanta Center
Fri 12:16:43 PM 34.2972 -86.9336 325° Northwest 407 468 34,000  Level Memphis Center
Fri 12:17:45 PM 34.3892 -87.0131 325° Northwest 408 470 34,000  Level Memphis Center
Fri 12:18:47 PM 34.4867 -87.0808 330° Northwest 412 474 34,000  Level Memphis Center
Fri 12:19:49 PM 34.5903 -87.1386 335° Northwest 413 475 34,000  Level Memphis Center
Fri 12:20:50 PM 34.6942 -87.1953 336° Northwest 413 475 34,000  Level Memphis Center
Fri 12:21:52 PM 34.8067 -87.2861 326° Northwest 409 471 34,000  Level Memphis Center
Fri 12:22:54 PM 34.8969 -87.3683 323° Northwest 408 470 34,000  Level Memphis Center
Fri 12:23:56 PM 34.9878 -87.4506 323° Northwest 409 471 34,000  Level Memphis Center
Fri 12:24:58 PM 35.0789 -87.5333 323° Northwest 409 471 34,000  Level Memphis Center
Fri 12:26:00 PM 35.1692 -87.6178 323° Northwest 411 473 34,000  Level Memphis Center
Fri 12:27:01 PM 35.2789 -87.7186 323° Northwest 412 474 34,000  Level Memphis Center
Fri 12:28:03 PM 35.3697 -87.8031 323° Northwest 411 473 34,000  Level Memphis Center
Fri 12:29:05 PM 35.4644 -87.8908 323° Northwest 416 479 34,000  Level Memphis Center
Fri 12:30:07 PM 35.5569 -87.9761 323° Northwest 414 476 34,000  Level Memphis Center
Fri 12:31:09 PM 35.6508 -88.0628 323° Northwest 415 478 34,000  Level Memphis Center
Fri 12:32:10 PM 35.7397 -88.1475 322° Northwest 414 476 34,000  Level Memphis Center
Fri 12:33:12 PM 35.8322 -88.2331 323° Northwest 415 478 34,000  Level Memphis Center
Fri 12:34:14 PM 35.9231 -88.3186 323° Northwest 413 475 34,000  Level Memphis Center
Fri 12:35:16 PM 36.0344 -88.4222 323° Northwest 416 479 34,000  Level Memphis Center
Fri 12:36:18 PM 36.1253 -88.5083 323° Northwest 414 476 34,000  Level Memphis Center
Fri 12:37:20 PM 36.2161 -88.5950 322° Northwest 413 475 34,000  Level Memphis Center
Fri 12:38:21 PM 36.3083 -88.6822 323° Northwest 416 479 34,000  Level Memphis Center
Fri 12:39:23 PM 36.4003 -88.7694 323° Northwest 417 480 34,000  Level Memphis Center
Fri 12:40:25 PM 36.4919 -88.8578 322° Northwest 419 482 34,000 -484 Level Memphis Center
Fri 12:41:27 PM 36.6014 -88.9633 322° Northwest 419 482 33,000 -1,355 Descending Memphis Center
Fri 12:42:29 PM 36.6878 -89.0467 322° Northwest 404 465 31,200 -1,258 Descending Memphis Center
Fri 12:43:31 PM 36.7769 -89.1317 323° Northwest 404 465 30,400 -871 Descending Memphis Center
Fri 12:44:33 PM 36.8678 -89.2200 322° Northwest 412 474 29,400 -968 Descending Memphis Center
Fri 12:45:35 PM 36.9575 -89.3075 322° Northwest 413 475 28,400 -1,073 Descending Memphis Center
Fri 12:46:36 PM 37.0614 -89.4094 322° Northwest 400 460 27,200 -1,073 Descending Memphis Center
Fri 12:47:38 PM 37.1450 -89.4922 322° Northwest 389 448 26,200 -581 Descending Memphis Center
Fri 12:48:40 PM 37.2286 -89.5733 322° Northwest 382 440 26,000 -97 Descending Memphis Center
Fri 12:49:42 PM 37.3303 -89.6300 336° Northwest 399 459 26,000  Level Memphis Center
Fri 12:50:44 PM 37.4342 -89.6847 337° Northwest 402 463 26,000 -48 Level Memphis Center
Fri 12:51:46 PM 37.5375 -89.7417 336° Northwest 405 466 25,900 -1,024 Descending Memphis Center
Fri 12:52:47 PM 37.6344 -89.7939 337° Northwest 385 443 23,900 -2,244 Descending Memphis Center
Fri 12:53:49 PM 37.7436 -89.8539 337° Northwest 359 413 21,300 -2,274 Descending Memphis Center
Fri 12:54:51 PM 37.8297 -89.9025 336° Northwest 346 398 19,200 -1,742 Descending Memphis Center
Fri 12:55:53 PM 37.9128 -89.9478 337° Northwest 329 379 17,700 -2,036 Descending Memphis Center
Fri 12:56:43 PM 38.0000 -90.0000 335° Northwest 371 427 15,400 -2,571 Descending Gateway (St. Louis) TRACON
Fri 12:57:17 PM 38.0458 -90.0217 340° North 368 423 14,100 -2,250 Descending Kansas City Center
Fri 12:58:19 PM 38.1392 -90.0728 337° Northwest 355 409 11,800 -1,872 Descending Kansas City Center
Fri 12:59:22 PM 38.2342 -90.0806 356° North 345 397 10,200 -1,152 Descending Kansas City Center
Fri 01:00:24 PM 38.3156 -90.0969 351° North 308 354 9,400 -1,065 Descending Kansas City Center
Fri 01:01:26 PM 38.3900 -90.1161 349° North 281 323 8,000 -1,452 Descending Kansas City Center
Fri 01:02:28 PM 38.4631 -90.1342 349° North 274 315 6,400 -1,645 Descending Kansas City Center
Fri 01:03:30 PM 38.5467 -90.1547 349° North 264 304 4,600 -1,355 Descending Kansas City Center
Fri 01:04:32 PM 38.6086 -90.1692 350° North 245 282 3,600 -677 Descending Kansas City Center
Fri 01:05:34 PM 38.6592 -90.1928 340° North 219 252 3,200 -532 Descending Kansas City Center
Fri 01:06:36 PM 38.6908 -90.2422 309° West 195 224 2,500 -726 Descending Kansas City Center
Fri 01:07:38 PM 38.7133 -90.2886 302° West 171 197 1,700 -823 Descending Kansas City Center
Fri 01:08:40 PM 38.7367 -90.3356 303° West 145 167 800 -532 Descending Kansas City Center
Fri 01:09:42 PM 38.7561 -90.3756 302° West 143 165 600 -194 Descending Kansas City Center

Login

Don't have an account? Register now (free) for customized features, flight alerts, and more!